createdAt,value
2016-12-28T08:14:04.098Z,49.6
2016-12-28T09:55:45.072Z,50.9
2016-12-28T09:56:02.867Z,50.2
2016-12-28T10:01:06.040Z,45.6
2016-12-28T10:06:09.184Z,47.8
2016-12-28T10:11:12.514Z,48.3
2016-12-28T10:16:15.680Z,49.3
2016-12-28T10:21:18.816Z,49.8
2016-12-28T10:26:21.964Z,50
2016-12-28T10:31:25.148Z,50
2016-12-28T10:38:29.027Z,50.2
2016-12-28T10:38:34.528Z,50.2
2016-12-28T10:39:48.184Z,50.2
2016-12-28T10:39:55.106Z,50.2
2016-12-28T10:40:46.891Z,50.2
2016-12-28T10:40:57.528Z,50.2
2016-12-28T10:44:44.460Z,50.2
2016-12-28T10:45:33.208Z,50.2
2016-12-28T10:47:42.160Z,50.2
2016-12-28T10:48:42.604Z,50.3
2016-12-28T12:18:16.121Z,47.3
2016-12-28T12:18:33.856Z,46.7
2016-12-28T12:23:37.235Z,47.7
2016-12-28T12:28:40.588Z,49.2
2016-12-28T12:33:43.963Z,49.2
2016-12-28T12:38:47.307Z,49.8
2016-12-28T12:43:50.649Z,46.6
2016-12-28T12:48:54.000Z,45.4
2016-12-28T12:53:57.346Z,45.2
2016-12-28T12:59:00.694Z,45.3
2016-12-28T13:09:14.952Z,45.3
2016-12-28T13:14:18.300Z,46.1
2016-12-28T13:19:21.636Z,47.5
2016-12-28T13:24:25.039Z,46.9
2016-12-28T13:29:28.397Z,46.9
2016-12-28T13:34:38.730Z,46.9
2016-12-28T13:38:49.471Z,46.7
2016-12-28T13:39:47.018Z,46.5
2016-12-28T13:44:50.357Z,47.2
2016-12-28T13:49:53.682Z,46.5
2016-12-28T13:54:57.048Z,46.2
2016-12-28T14:00:00.408Z,46.2
2016-12-28T14:03:48.365Z,46.4
2016-12-28T14:04:37.513Z,46.5
2016-12-28T14:07:44.847Z,45.9
2016-12-28T14:08:43.245Z,45.8
2016-12-28T14:09:43.704Z,45.9
2016-12-28T14:10:34.477Z,45.8
2016-12-28T14:13:06.801Z,45.7
2016-12-28T14:15:39.163Z,45.8
2016-12-28T14:18:11.494Z,46
2016-12-28T14:20:43.806Z,45.8
2016-12-28T14:23:16.120Z,45.4
2016-12-28T14:25:48.444Z,45.6
2016-12-28T14:28:20.772Z,45.7
2016-12-28T14:30:53.117Z,45.9
2016-12-28T14:33:25.461Z,45.5
2016-12-28T14:35:57.789Z,45.3
2016-12-28T14:38:51.742Z,45.2
2016-12-28T14:41:24.174Z,45.2
2016-12-28T14:43:56.496Z,45.3
2016-12-28T14:45:47.194Z,45.5
2016-12-28T14:48:22.009Z,45.2
2016-12-28T14:50:55.071Z,45.2
2016-12-28T14:53:27.402Z,45.1
2016-12-28T14:55:59.713Z,45.2
2016-12-28T14:58:32.039Z,45.2
2016-12-28T15:01:05.229Z,45.1
2016-12-28T15:03:37.635Z,45.2
2016-12-28T17:41:25.881Z,47.2
2016-12-28T17:41:44.056Z,47.2
2016-12-28T17:44:16.367Z,48.2
2016-12-28T17:45:14.400Z,48.2
2016-12-28T17:47:46.729Z,48.2
2016-12-28T17:50:19.050Z,48
2016-12-28T17:50:43.507Z,48.1
2016-12-28T17:53:15.838Z,48
2016-12-28T17:55:48.169Z,47.8
2016-12-28T17:58:20.542Z,47.8
2016-12-28T18:00:52.871Z,47.8
2016-12-28T18:03:25.403Z,46.7
2016-12-28T18:05:57.742Z,45.2
2016-12-28T18:08:30.049Z,44.9
2016-12-28T18:09:04.499Z,44.7
2016-12-28T18:09:35.165Z,44.6
2016-12-28T18:12:07.490Z,44.3
2016-12-28T18:14:39.797Z,45
2016-12-28T18:17:12.139Z,45.9
2016-12-28T18:19:44.536Z,46.7
2016-12-28T18:22:16.858Z,47.3
2016-12-28T18:24:49.383Z,47.6
2016-12-28T18:27:22.123Z,47.8
2016-12-28T18:29:54.479Z,48
2016-12-28T18:32:26.794Z,48.1
2016-12-28T18:34:59.123Z,48.3
2016-12-28T18:37:31.453Z,48.4
2016-12-28T18:40:03.783Z,48.5
2016-12-28T18:42:36.121Z,48.5
2016-12-28T18:45:08.434Z,48.6
2016-12-28T18:47:40.764Z,48.6
2016-12-28T18:50:13.090Z,48.7
2016-12-28T18:52:45.405Z,48.7
2016-12-28T18:55:17.739Z,48.8
2016-12-28T18:57:50.051Z,48.9
2016-12-28T19:00:22.376Z,49
2016-12-28T19:02:54.681Z,49.1
2016-12-28T19:05:27.022Z,49.1
2016-12-28T19:07:59.329Z,49.2
2016-12-28T19:10:31.672Z,49.2
2016-12-28T19:13:04.016Z,49.2
2016-12-28T19:15:36.332Z,49.3
2016-12-28T19:18:08.649Z,49.3
2016-12-28T19:20:40.995Z,49.2
2016-12-28T19:23:13.330Z,49.2
2016-12-28T19:25:45.635Z,49.2
2016-12-28T19:28:17.963Z,49.2
2016-12-28T19:30:50.276Z,49.2
2016-12-28T19:33:23.278Z,49.2
2016-12-28T19:35:55.609Z,49.2
2016-12-28T19:38:27.945Z,49.1
2016-12-28T19:41:00.256Z,49.2
2016-12-28T19:43:32.599Z,49
2016-12-28T19:46:04.932Z,49
2016-12-28T19:48:37.246Z,49.1
2016-12-28T19:51:09.556Z,49
2016-12-28T19:53:41.863Z,49
2016-12-28T19:56:14.189Z,49
2016-12-28T19:58:46.506Z,49
2016-12-28T20:01:18.822Z,49.1
2016-12-28T20:03:51.147Z,49
2016-12-28T20:06:23.452Z,49.1
2016-12-28T20:08:55.774Z,49
2016-12-28T20:11:28.695Z,49.1
2016-12-28T20:14:01.032Z,49.1
2016-12-28T20:16:33.345Z,49.1
2016-12-28T20:19:05.658Z,49.1
2016-12-28T20:21:37.977Z,49.1
2016-12-28T20:24:10.290Z,48.9
2016-12-28T20:26:42.618Z,49.1
2016-12-28T20:29:14.933Z,49.2
2016-12-28T20:31:47.264Z,49.2
2016-12-28T20:34:19.584Z,49.2
2016-12-28T20:36:51.913Z,49.2
2016-12-28T20:39:24.219Z,49.3
2016-12-28T20:41:56.539Z,49.3
2016-12-28T20:44:28.855Z,49.4
2016-12-28T20:47:01.181Z,49.4
2016-12-28T20:49:33.504Z,49.4
2016-12-28T20:52:05.806Z,49.5
2016-12-28T20:54:38.110Z,49.5
2016-12-28T20:57:10.431Z,49.5
2016-12-28T20:59:42.732Z,49.5
2016-12-28T21:02:15.040Z,49.5
2016-12-28T21:04:47.347Z,49.6
2016-12-28T21:07:19.673Z,49.6
2016-12-28T21:09:51.976Z,49.6
2016-12-28T21:12:24.296Z,49.6
2016-12-28T21:14:56.611Z,49.6
2016-12-28T21:17:28.949Z,49.6
2016-12-28T21:20:01.258Z,49.6
2016-12-28T21:22:33.577Z,49.6
2016-12-28T21:25:05.910Z,49.6
2016-12-28T21:27:38.227Z,49.6
2016-12-28T21:30:10.560Z,49.6
2016-12-28T21:32:42.871Z,49.6
2016-12-28T21:35:15.204Z,49.6
2016-12-28T21:37:47.530Z,49.6
2016-12-28T21:40:19.871Z,49.7
2016-12-28T21:42:52.171Z,49.6
2016-12-28T21:45:24.480Z,49.7
2016-12-28T21:47:56.808Z,49.8
2016-12-28T21:50:29.143Z,49.8
2016-12-28T21:53:01.503Z,49.9
2016-12-28T21:55:33.794Z,49.9
2016-12-28T21:58:06.119Z,49.9
2016-12-28T22:00:38.449Z,50
2016-12-28T22:03:10.762Z,50
2016-12-28T22:05:43.072Z,49.9
2016-12-28T22:08:15.380Z,49.9
2016-12-28T22:10:47.699Z,49.9
2016-12-28T22:13:20.031Z,49.8
2016-12-28T22:15:52.788Z,49.9
2016-12-28T22:18:25.113Z,49.8
2016-12-28T22:20:57.437Z,49.9
2016-12-28T22:23:29.754Z,49.8
2016-12-28T22:26:02.066Z,50.3
2016-12-28T22:28:34.473Z,50.4
2016-12-28T22:31:06.805Z,50.6
2016-12-28T22:34:06.640Z,50.6
2016-12-28T22:36:48.385Z,50.6
2016-12-28T22:39:20.748Z,50.4
2016-12-28T22:41:53.064Z,50.3
2016-12-28T22:44:25.406Z,50.2
2016-12-28T22:46:57.854Z,50.2
2016-12-28T22:49:30.335Z,50.1
2016-12-28T22:52:02.923Z,50
2016-12-28T22:54:43.381Z,50
2016-12-28T22:57:15.945Z,49.9
2016-12-28T22:59:48.375Z,49.9
2016-12-28T23:02:20.919Z,49.9
2016-12-28T23:04:53.426Z,49.9
2016-12-28T23:07:25.810Z,49.8
2016-12-28T23:09:58.210Z,49.8
2016-12-28T23:12:30.581Z,49.8
2016-12-28T23:15:02.932Z,49.8
2016-12-28T23:17:35.247Z,49.8
2016-12-28T23:20:07.588Z,49.9
2016-12-28T23:22:40.031Z,49.9
2016-12-28T23:25:12.484Z,49.9
2016-12-28T23:27:44.890Z,49.9
2016-12-28T23:30:17.641Z,50.1
2016-12-28T23:32:49.989Z,50
2016-12-28T23:35:22.298Z,50.1
2016-12-28T23:37:54.628Z,50.1
2016-12-28T23:40:26.995Z,50.1
2016-12-28T23:42:59.335Z,50.1
2016-12-28T23:45:31.635Z,50.1
2016-12-28T23:48:03.971Z,50.1
2016-12-28T23:50:36.302Z,50.1
2016-12-28T23:53:08.626Z,50.2
2016-12-28T23:55:40.959Z,50.2
2016-12-28T23:58:13.469Z,50.2
